This is the latest recevied weather packets stored in our database for station/object KF0RZX-13. If no packets are shown the sender has not sent any weather packets the latest 10 day(s).
| Time | Temp. | Humidity | Pressure | Rain* | Wind** | Luminosity | Snow |
|---|---|---|---|---|---|---|---|
| 1788011676 | 20° C | 64% | 1019.3 hPa | 0 mm | - | - | - |
| 1788009872 | 18.89° C | 68% | 1019.3 hPa | 0 mm | - | - | - |
| 1788008066 | 17.78° C | 68% | 1018.6 hPa | 0 mm | - | - | - |
| 1788006261 | 17.78° C | 68% | 1018.6 hPa | 0 mm | - | - | - |
| 1788004457 | 20° C | 60% | 1018.6 hPa | 0 mm | - | - | - |
| 1788002651 | 20° C | 60% | 1018.6 hPa | 0 mm | - | - | - |
| 1788000847 | 17.78° C | 68% | 1018.6 hPa | 0 mm | - | - | - |
| 1787999041 | 18.89° C | 64% | 1018.6 hPa | 0 mm | - | - | - |
| 1787997236 | 20° C | 60% | 1018.6 hPa | 0 mm | - | - | - |
| 1787995431 | 21.11° C | 56% | 1018.3 hPa | 0 mm | - | - | - |
| 1787993627 | 20° C | 60% | 1018.6 hPa | 0 mm | - | - | - |
| 1787991822 | 21.11° C | 56% | 1018.6 hPa | 0 mm | - | - | - |
| 1787990016 | 18.89° C | 64% | 1018.6 hPa | 0 mm | - | - | - |
| 1787988211 | 20° C | 60% | 1019 hPa | 0 mm | - | - | - |
| 1787986406 | 18.89° C | 64% | 1019.3 hPa | 0 mm | - | - | - |
| 1787984601 | 18.89° C | 68% | 1019 hPa | 0 mm | - | - | - |
| 1787982796 | 21.11° C | 56% | 1019.3 hPa | 0 mm | - | - | - |
| 1787980991 | 22.22° C | 53% | 1019 hPa | 0 mm | - | - | - |
| 1787979186 | 22.78° C | 50% | 1019 hPa | 0 mm | - | - | - |
| 1787977381 | 23.89° C | 50% | 1019.3 hPa | 0 mm | - | - | - |
| 1787975576 | 25° C | 47% | 1019.6 hPa | 0 mm | - | - | - |
| 1787973773 | 26.11° C | 39% | 1019.6 hPa | 0 mm | - | - | - |
| 1787971967 | 27.22° C | 37% | 1019.3 hPa | 0 mm | - | - | - |
| 1787970162 | 26.11° C | 39% | 1018.6 hPa | 0 mm | - | - | - |
| 1787968356 | 28.89° C | 27% | 1018.6 hPa | 0 mm | - | - | - |
* Rain latest hour (hover to see other rain measurements)
** Current wind speed in m/s (hover to see current wind gust speed)